Time;durP1;ratioP1;P1;durP2;ratioP2;P2;SDS_P1;SDS_P2;PMS_P1;PMS_P2;Temp;Humidity;BMP_temperature;BMP_pressure;BME280_temperature;BME280_humidity;BME280_pressure;Samples;Min_cycle;Max_cycle;Signal;HPM_P1;HPM_P2
2021/03/26 00:00:26;;;;;;;9.97;6.07;;;;;;;;;;5055005;28;20184;-73
2021/03/26 00:03:34;;;;;;;11.73;6.80;;;;;;;;;;5054635;28;20180;-73
2021/03/26 00:06:43;;;;;;;12.07;6.03;;;;;;;;;;5042576;28;20204;-73
2021/03/26 00:09:48;;;;;;;12.70;6.87;;;;;;;;;;5030804;28;20647;-73
2021/03/26 00:12:52;;;;;;;11.30;6.20;;;;;;;;;;5041891;28;20219;-73
2021/03/26 00:15:56;;;;;;;12.80;6.10;;;;;;;;;;5054132;28;20543;-73
2021/03/26 00:19:00;;;;;;;11.83;6.20;;;;;;;;;;5054322;28;20176;-73
2021/03/26 00:22:06;;;;;;;12.40;5.93;;;;;;;;;;5042155;28;20207;-73
2021/03/26 00:25:11;;;;;;;9.70;6.07;;;;;;;;;;5053936;28;20188;-73
2021/03/26 00:28:15;;;;;;;11.73;6.70;;;;;;;;;;5053833;28;20215;-73
2021/03/26 00:31:19;;;;;;;12.73;6.43;;;;;;;;;;5030108;28;20227;-73
2021/03/26 00:34:24;;;;;;;11.00;6.07;;;;;;;;;;5054082;28;20176;-74
2021/03/26 00:37:27;;;;;;;11.50;6.80;;;;;;;;;;5054038;28;20180;-73
2021/03/26 00:40:32;;;;;;;11.13;6.43;;;;;;;;;;5041402;28;20630;-73
2021/03/26 00:43:37;;;;;;;10.37;5.90;;;;;;;;;;5053913;28;20180;-73
2021/03/26 00:46:42;;;;;;;9.73;6.33;;;;;;;;;;5030306;28;20184;-74
2021/03/26 00:49:46;;;;;;;10.87;6.17;;;;;;;;;;5041566;28;20627;-73
2021/03/26 00:52:51;;;;;;;14.93;6.37;;;;;;;;;;5041430;28;20216;-74
2021/03/26 00:55:56;;;;;;;9.80;6.23;;;;;;;;;;5053659;28;20639;-74
2021/03/26 00:59:01;;;;;;;11.73;6.70;;;;;;;;;;5041667;28;20534;-73
2021/03/26 01:02:05;;;;;;;11.37;6.23;;;;;;;;;;5053206;28;20212;-74
2021/03/26 01:05:14;;;;;;;10.67;6.67;;;;;;;;;;5040791;28;20204;-74
2021/03/26 01:08:20;;;;;;;12.07;6.40;;;;;;;;;;5030018;28;20176;-74
2021/03/26 01:11:27;;;;;;;11.83;6.93;;;;;;;;;;5041017;28;20220;-73
2021/03/26 01:14:32;;;;;;;10.93;6.53;;;;;;;;;;5053461;28;20172;-74
2021/03/26 01:17:37;;;;;;;11.33;6.77;;;;;;;;;;5041429;28;20180;-73
2021/03/26 01:20:42;;;;;;;12.30;7.20;;;;;;;;;;5053046;28;20191;-74
2021/03/26 01:23:46;;;;;;;11.50;6.83;;;;;;;;;;5041098;28;20180;-74
2021/03/26 01:26:51;;;;;;;16.00;7.73;;;;;;;;;;5040668;28;20208;-74
2021/03/26 01:30:08;;;;;;;16.37;7.97;;;;;;;;;;5053254;28;20520;-73
2021/03/26 01:33:13;;;;;;;13.70;6.67;;;;;;;;;;5040655;28;20687;-74
2021/03/26 01:36:18;;;;;;;17.13;7.87;;;;;;;;;;5029505;28;20180;-73
2021/03/26 01:39:22;;;;;;;13.83;7.30;;;;;;;;;;5053152;28;20176;-74
2021/03/26 01:42:33;;;;;;;12.90;7.03;;;;;;;;;;5052759;28;20203;-73
2021/03/26 01:45:39;;;;;;;13.93;6.37;;;;;;;;;;5040892;28;20184;-74
2021/03/26 01:48:54;;;;;;;12.23;6.67;;;;;;;;;;5040849;28;20188;-73
2021/03/26 01:51:59;;;;;;;19.17;7.37;;;;;;;;;;5052653;28;20228;-73
2021/03/26 01:55:06;;;;;;;14.90;7.30;;;;;;;;;;5040736;28;20598;-74
2021/03/26 01:58:20;;;;;;;13.07;6.93;;;;;;;;;;5052666;28;20200;-73
2021/03/26 02:01:28;;;;;;;11.53;7.43;;;;;;;;;;5040649;28;20954;-73
2021/03/26 02:04:41;;;;;;;12.27;6.97;;;;;;;;;;5040607;28;20176;-73
2021/03/26 02:08:04;;;;;;;12.60;7.63;;;;;;;;;;5043398;28;21057;-74
2021/03/26 02:11:32;;;;;;;14.57;8.70;;;;;;;;;;5052420;28;20654;-74
2021/03/26 02:14:47;;;;;;;17.83;8.93;;;;;;;;;;5052912;28;20185;-73
2021/03/26 02:17:51;;;;;;;18.33;8.90;;;;;;;;;;5043662;28;20543;-74
2021/03/26 02:21:05;;;;;;;13.40;8.13;;;;;;;;;;5033337;28;20898;-74
2021/03/26 02:24:10;;;;;;;15.83;8.33;;;;;;;;;;5044288;28;20543;-73
2021/03/26 02:27:24;;;;;;;15.13;8.37;;;;;;;;;;5043778;28;20609;-74
2021/03/26 02:30:32;;;;;;;14.87;7.40;;;;;;;;;;5044206;28;20180;-73
2021/03/26 02:33:39;;;;;;;12.03;7.50;;;;;;;;;;5044116;28;20891;-74
2021/03/26 02:36:47;;;;;;;13.20;8.07;;;;;;;;;;5056250;28;20586;-73
2021/03/26 02:39:53;;;;;;;15.37;7.87;;;;;;;;;;5044353;28;20542;-74
2021/03/26 02:43:15;;;;;;;16.67;8.53;;;;;;;;;;5043591;28;20614;-74
2021/03/26 02:46:43;;;;;;;15.23;8.70;;;;;;;;;;5043838;28;20543;-74
2021/03/26 02:49:52;;;;;;;14.93;8.33;;;;;;;;;;5043545;28;20551;-74
2021/03/26 02:53:26;;;;;;;16.00;9.03;;;;;;;;;;5056101;28;20654;-74
2021/03/26 02:56:46;;;;;;;17.43;8.17;;;;;;;;;;5043465;28;20628;-73
2021/03/26 02:59:59;;;;;;;17.87;8.57;;;;;;;;;;5055949;28;20547;-74
2021/03/26 03:03:05;;;;;;;13.10;7.57;;;;;;;;;;5031881;28;20694;-74
2021/03/26 03:06:23;;;;;;;14.47;8.43;;;;;;;;;;5032101;28;20180;-74
2021/03/26 03:10:06;;;;;;;16.53;8.90;;;;;;;;;;5043542;28;20603;-74
2021/03/26 03:13:16;;;;;;;14.63;8.40;;;;;;;;;;5043244;28;20227;-73
2021/03/26 03:16:35;;;;;;;14.43;7.93;;;;;;;;;;5042919;28;20188;-74
2021/03/26 03:20:05;;;;;;;12.73;7.13;;;;;;;;;;5043274;28;20188;-74
2021/03/26 03:23:19;;;;;;;14.60;8.40;;;;;;;;;;5042735;28;20208;-74
2021/03/26 03:27:01;;;;;;;15.67;8.23;;;;;;;;;;5055098;28;20207;-74
2021/03/26 03:30:39;;;;;;;12.30;8.20;;;;;;;;;;5042965;28;20516;-74
2021/03/26 03:34:05;;;;;;;12.77;7.97;;;;;;;;;;5043143;28;20522;-74
2021/03/26 03:37:20;;;;;;;12.93;7.87;;;;;;;;;;5042872;28;20184;-74
2021/03/26 03:40:37;;;;;;;15.13;7.97;;;;;;;;;;5055181;28;20188;-74
2021/03/26 03:44:16;;;;;;;16.17;8.50;;;;;;;;;;5042444;28;20176;-74
2021/03/26 03:47:29;;;;;;;14.83;7.50;;;;;;;;;;5031010;28;20196;-74
2021/03/26 03:51:36;;;;;;;12.57;7.40;;;;;;;;;;5054516;28;20184;-73
2021/03/26 03:54:54;;;;;;;14.90;8.10;;;;;;;;;;5021206;28;20552;-74
2021/03/26 03:58:07;;;;;;;14.83;8.80;;;;;;;;;;5042378;28;20189;-74
2021/03/26 04:01:29;;;;;;;13.13;7.57;;;;;;;;;;5031217;28;20184;-73
2021/03/26 04:04:42;;;;;;;12.17;7.93;;;;;;;;;;5042251;28;20180;-73
2021/03/26 04:08:11;;;;;;;12.90;7.40;;;;;;;;;;5042182;28;20176;-74
2021/03/26 04:11:22;;;;;;;14.03;7.10;;;;;;;;;;5042176;28;20219;-73
2021/03/26 04:14:56;;;;;;;11.37;6.90;;;;;;;;;;5030847;28;20176;-74
2021/03/26 04:18:24;;;;;;;14.97;7.87;;;;;;;;;;5031215;28;20180;-73
2021/03/26 04:21:50;;;;;;;12.43;7.30;;;;;;;;;;5054056;28;20208;-73
2021/03/26 04:25:13;;;;;;;16.03;7.90;;;;;;;;;;5054534;28;20184;-73
2021/03/26 04:28:44;;;;;;;12.80;6.70;;;;;;;;;;5040587;28;20208;-73
2021/03/26 04:32:11;;;;;;;13.23;7.57;;;;;;;;;;5053913;28;20659;-73
2021/03/26 04:35:19;;;;;;;11.90;7.60;;;;;;;;;;5030757;28;20180;-73
2021/03/26 04:38:46;;;;;;;11.50;8.00;;;;;;;;;;5041452;28;20180;-73
2021/03/26 04:42:06;;;;;;;14.70;7.93;;;;;;;;;;5053610;28;20212;-74
2021/03/26 04:45:26;;;;;;;13.60;7.67;;;;;;;;;;5041586;28;20635;-73
2021/03/26 04:48:45;;;;;;;14.70;7.70;;;;;;;;;;5031452;28;20184;-73
2021/03/26 04:52:07;;;;;;;15.03;7.53;;;;;;;;;;5041097;28;20575;-73
2021/03/26 04:55:31;;;;;;;14.90;8.30;;;;;;;;;;5053631;28;20512;-73
2021/03/26 04:58:39;;;;;;;12.57;7.70;;;;;;;;;;5053765;28;20180;-74
2021/03/26 05:02:21;;;;;;;12.70;7.47;;;;;;;;;;5060364;22;20555;-89
2021/03/26 05:05:30;;;;;;;16.13;8.53;;;;;;;;;;5031504;28;20901;-89
2021/03/26 05:08:48;;;;;;;15.27;8.20;;;;;;;;;;5030531;28;20598;-90
2021/03/26 05:12:12;;;;;;;14.77;8.03;;;;;;;;;;5032102;28;20650;-89
2021/03/26 05:15:25;;;;;;;17.13;8.17;;;;;;;;;;5019262;28;20606;-88
2021/03/26 05:18:45;;;;;;;13.20;8.10;;;;;;;;;;5030778;28;21124;-89
2021/03/26 05:22:16;;;;;;;12.30;7.77;;;;;;;;;;5008255;28;20627;-89
2021/03/26 05:25:49;;;;;;;15.07;7.80;;;;;;;;;;5024527;28;20622;-88
2021/03/26 05:29:00;;;;;;;20.97;8.43;;;;;;;;;;5019868;28;20539;-89
2021/03/26 05:32:19;;;;;;;14.93;8.23;;;;;;;;;;5019156;28;20654;-89
2021/03/26 05:36:07;;;;;;;12.83;7.23;;;;;;;;;;5033256;28;21085;-89
2021/03/26 05:39:34;;;;;;;13.03;8.07;;;;;;;;;;5035745;28;20606;-87
2021/03/26 05:43:24;;;;;;;13.83;8.33;;;;;;;;;;5025343;28;20975;-87
2021/03/26 05:46:57;;;;;;;14.60;7.73;;;;;;;;;;5022742;28;20537;-87
2021/03/26 05:50:37;;;;;;;13.57;8.17;;;;;;;;;;5013536;28;20189;-87
2021/03/26 05:54:05;;;;;;;14.00;8.17;;;;;;;;;;5015005;28;20216;-87
2021/03/26 05:57:42;;;;;;;14.37;8.70;;;;;;;;;;5016275;28;20516;-88
2021/03/26 06:01:11;;;;;;;12.50;8.30;;;;;;;;;;5016571;28;20181;-86
2021/03/26 06:04:56;;;;;;;14.57;8.23;;;;;;;;;;5031071;28;20176;-87
2021/03/26 06:08:39;;;;;;;12.27;7.73;;;;;;;;;;5026193;28;20185;-86
2021/03/26 06:12:41;;;;;;;13.20;7.80;;;;;;;;;;5031336;28;20216;-86
2021/03/26 06:16:07;;;;;;;11.93;7.70;;;;;;;;;;5020683;28;20193;-86
2021/03/26 06:19:48;;;;;;;15.10;8.77;;;;;;;;;;5019316;28;20636;-86
2021/03/26 06:23:30;;;;;;;13.43;8.07;;;;;;;;;;5036092;28;20216;-85
2021/03/26 06:26:59;;;;;;;15.03;8.17;;;;;;;;;;5035924;28;20184;-87
2021/03/26 06:30:12;;;;;;;13.80;8.13;;;;;;;;;;5046268;28;20188;-87
2021/03/26 06:34:12;;;;;;;15.90;8.27;;;;;;;;;;5024423;28;20220;-87
2021/03/26 06:37:35;;;;;;;20.27;10.00;;;;;;;;;;5023469;28;20188;-87
2021/03/26 06:40:52;;;;;;;23.07;11.20;;;;;;;;;;5023722;28;20627;-87
2021/03/26 06:44:32;;;;;;;21.57;12.30;;;;;;;;;;5034749;28;20176;-87
2021/03/26 06:47:49;;;;;;;16.73;9.33;;;;;;;;;;5023560;28;20180;-88
2021/03/26 06:51:12;;;;;;;32.77;17.10;;;;;;;;;;5035501;28;20628;-87
2021/03/26 06:54:50;;;;;;;26.33;15.83;;;;;;;;;;5034305;28;20563;-87
2021/03/26 06:58:05;;;;;;;24.43;13.47;;;;;;;;;;5023230;28;20188;-87
2021/03/26 07:01:38;;;;;;;17.07;9.93;;;;;;;;;;5035638;28;20180;-86
2021/03/26 07:05:00;;;;;;;15.40;9.20;;;;;;;;;;5035265;28;20172;-87
2021/03/26 07:08:37;;;;;;;13.70;8.30;;;;;;;;;;5036389;28;20180;-87
2021/03/26 07:11:59;;;;;;;14.83;8.63;;;;;;;;;;5048893;28;20184;-88
2021/03/26 07:15:15;;;;;;;13.70;9.40;;;;;;;;;;5038551;28;20180;-87
2021/03/26 07:18:38;;;;;;;12.90;8.13;;;;;;;;;;5026294;28;20185;-87
2021/03/26 07:21:54;;;;;;;16.47;10.20;;;;;;;;;;5024053;28;20223;-87
2021/03/26 07:25:37;;;;;;;19.77;9.93;;;;;;;;;;5022714;28;20193;-86
2021/03/26 07:29:28;;;;;;;14.07;8.57;;;;;;;;;;5011838;28;20192;-87
2021/03/26 07:32:48;;;;;;;14.67;8.87;;;;;;;;;;5045652;28;20224;-87
2021/03/26 07:36:31;;;;;;;17.93;9.90;;;;;;;;;;5035017;28;20181;-86
2021/03/26 07:39:47;;;;;;;15.97;9.47;;;;;;;;;;5056978;28;20180;-86
2021/03/26 07:43:29;;;;;;;16.50;9.60;;;;;;;;;;5021942;28;20215;-86
2021/03/26 07:46:55;;;;;;;15.73;9.23;;;;;;;;;;5037258;28;20683;-86
2021/03/26 07:50:26;;;;;;;14.73;9.43;;;;;;;;;;5024817;28;20181;-86
2021/03/26 07:53:40;;;;;;;16.53;8.87;;;;;;;;;;5001429;28;20224;-86
2021/03/26 07:57:03;;;;;;;14.97;9.20;;;;;;;;;;5012404;28;20185;-86
2021/03/26 08:00:22;;;;;;;13.20;8.60;;;;;;;;;;5019787;28;20208;-86
2021/03/26 08:03:50;;;;;;;16.13;9.27;;;;;;;;;;5044108;28;20578;-86
2021/03/26 08:07:29;;;;;;;19.87;10.30;;;;;;;;;;5042865;28;20176;-86
2021/03/26 08:10:50;;;;;;;13.40;9.40;;;;;;;;;;5043428;28;20185;-86
2021/03/26 08:14:18;;;;;;;21.87;10.23;;;;;;;;;;5020078;28;20212;-86
2021/03/26 08:17:45;;;;;;;16.07;9.30;;;;;;;;;;5032310;28;20187;-86
2021/03/26 08:21:00;;;;;;;18.43;9.83;;;;;;;;;;5020471;28;20524;-86
2021/03/26 08:24:10;;;;;;;24.17;19.10;;;;;;;;;;5043555;28;20180;-86
2021/03/26 08:27:23;;;;;;;25.37;9.97;;;;;;;;;;5031705;28;20185;-86
2021/03/26 08:30:31;;;;;;;23.87;9.30;;;;;;;;;;5031082;28;20192;-86
2021/03/26 08:33:52;;;;;;;14.50;9.00;;;;;;;;;;5020991;28;20215;-86
2021/03/26 08:37:46;;;;;;;16.40;8.80;;;;;;;;;;5020300;28;20192;-86
2021/03/26 08:41:08;;;;;;;14.27;8.73;;;;;;;;;;5027880;28;20647;-87
2021/03/26 08:44:17;;;;;;;15.10;8.90;;;;;;;;;;5031287;28;20181;-86
2021/03/26 08:47:29;;;;;;;15.77;9.30;;;;;;;;;;5030703;28;20196;-86
2021/03/26 08:51:01;;;;;;;16.93;9.50;;;;;;;;;;5030730;28;20196;-86
2021/03/26 08:54:26;;;;;;;17.07;8.80;;;;;;;;;;5031157;28;20208;-86
2021/03/26 08:57:46;;;;;;;14.73;8.07;;;;;;;;;;5000172;28;20541;-86
2021/03/26 09:01:13;;;;;;;14.80;8.27;;;;;;;;;;5022521;28;20177;-85
2021/03/26 09:04:41;;;;;;;15.67;8.60;;;;;;;;;;5007809;28;20674;-86
2021/03/26 09:08:19;;;;;;;13.37;8.20;;;;;;;;;;5011626;28;20176;-86
2021/03/26 09:11:54;;;;;;;15.10;8.67;;;;;;;;;;5014735;28;20211;-86
2021/03/26 09:15:34;;;;;;;12.83;8.70;;;;;;;;;;5030612;28;20204;-86
2021/03/26 09:18:48;;;;;;;15.53;9.50;;;;;;;;;;5019818;28;20208;-86
2021/03/26 09:22:30;;;;;;;17.97;11.10;;;;;;;;;;5032733;28;20225;-86
2021/03/26 09:25:52;;;;;;;20.87;10.17;;;;;;;;;;5010593;28;20252;-86
2021/03/26 09:29:03;;;;;;;18.30;9.80;;;;;;;;;;5010706;28;20196;-86
2021/03/26 09:32:13;;;;;;;19.50;9.60;;;;;;;;;;5010849;28;20220;-87
2021/03/26 09:35:35;;;;;;;18.90;10.47;;;;;;;;;;5015243;28;20196;-85
2021/03/26 09:38:45;;;;;;;16.03;9.50;;;;;;;;;;5010796;28;20192;-85
2021/03/26 09:41:54;;;;;;;14.83;9.73;;;;;;;;;;5016999;28;20698;-85
2021/03/26 09:45:10;;;;;;;15.40;10.03;;;;;;;;;;5033407;28;20193;-86
2021/03/26 09:48:44;;;;;;;18.40;9.93;;;;;;;;;;5052513;28;20305;-85
2021/03/26 09:51:52;;;;;;;20.20;10.87;;;;;;;;;;5030234;28;20212;-85
2021/03/26 09:55:25;;;;;;;16.63;10.57;;;;;;;;;;5030233;28;20215;-85
2021/03/26 09:58:44;;;;;;;15.33;9.43;;;;;;;;;;5041486;28;20207;-85
2021/03/26 10:02:12;;;;;;;26.77;11.50;;;;;;;;;;5034350;28;20228;-85
2021/03/26 10:06:00;;;;;;;22.70;10.30;;;;;;;;;;5021671;28;20173;-85
2021/03/26 10:09:39;;;;;;;19.93;10.70;;;;;;;;;;5021787;28;20193;-85
2021/03/26 10:12:45;;;;;;;26.10;12.63;;;;;;;;;;4998914;28;20225;-85
2021/03/26 10:16:00;;;;;;;18.10;9.83;;;;;;;;;;4998979;28;20180;-85
2021/03/26 10:19:36;;;;;;;20.30;12.90;;;;;;;;;;5033256;28;20181;-86
2021/03/26 10:22:52;;;;;;;19.37;10.07;;;;;;;;;;5023726;28;20219;-85
2021/03/26 10:25:56;;;;;;;16.73;10.87;;;;;;;;;;5019082;28;20183;-85
2021/03/26 10:29:42;;;;;;;16.53;10.73;;;;;;;;;;5030267;28;20196;-85
2021/03/26 10:32:49;;;;;;;20.00;11.50;;;;;;;;;;5041288;28;20217;-85
2021/03/26 10:36:00;;;;;;;21.97;12.53;;;;;;;;;;5029872;28;20184;-85
2021/03/26 10:39:15;;;;;;;22.93;12.20;;;;;;;;;;5044295;28;20205;-85
2021/03/26 10:42:52;;;;;;;16.80;10.53;;;;;;;;;;5033318;28;20228;-85
2021/03/26 10:46:04;;;;;;;16.13;10.70;;;;;;;;;;5021934;28;20204;-85
2021/03/26 10:49:34;;;;;;;23.97;10.33;;;;;;;;;;5033179;28;20188;-85
2021/03/26 10:52:45;;;;;;;17.80;11.13;;;;;;;;;;5033495;28;20223;-85
2021/03/26 10:55:56;;;;;;;18.67;9.97;;;;;;;;;;5044992;28;20176;-85
2021/03/26 10:59:16;;;;;;;16.47;10.23;;;;;;;;;;5033150;28;20185;-85
2021/03/26 11:03:22;;;;;;;45.53;10.63;;;;;;;;;;5032641;28;20234;-85
2021/03/26 11:06:38;;;;;;;14.83;9.20;;;;;;;;;;4989927;28;20709;-85
2021/03/26 11:09:48;;;;;;;19.30;10.30;;;;;;;;;;4986215;28;20200;-85
2021/03/26 11:13:04;;;;;;;12.90;7.30;;;;;;;;;;5021462;28;20225;-85
2021/03/26 11:16:24;;;;;;;13.77;8.10;;;;;;;;;;5021612;28;20171;-85
2021/03/26 11:19:33;;;;;;;16.20;8.60;;;;;;;;;;5032916;28;20198;-84
2021/03/26 11:22:40;;;;;;;13.93;7.80;;;;;;;;;;5032597;28;20216;-84
2021/03/26 11:25:48;;;;;;;15.03;10.17;;;;;;;;;;5021103;28;20180;-85
2021/03/26 11:28:52;;;;;;;18.47;10.70;;;;;;;;;;5021670;28;20180;-85
2021/03/26 11:32:21;;;;;;;16.47;10.20;;;;;;;;;;5032664;28;20222;-85
2021/03/26 11:35:32;;;;;;;17.10;9.90;;;;;;;;;;5032456;28;20212;-92
2021/03/26 11:38:39;;;;;;;19.17;11.00;;;;;;;;;;5056472;28;20193;-86
2021/03/26 11:41:57;;;;;;;17.57;9.47;;;;;;;;;;5021052;28;20221;-86
2021/03/26 11:45:40;;;;;;;43.53;12.27;;;;;;;;;;5032254;28;20176;-85
2021/03/26 11:48:49;;;;;;;21.67;10.13;;;;;;;;;;5032251;28;20193;-86
2021/03/26 11:52:07;;;;;;;20.50;11.83;;;;;;;;;;5020823;28;20238;-86
2021/03/26 11:55:20;;;;;;;37.37;17.53;;;;;;;;;;5042741;28;20219;-86
2021/03/26 11:58:47;;;;;;;66.43;31.40;;;;;;;;;;5020533;28;20193;-86
2021/03/26 12:02:16;;;;;;;18.10;9.20;;;;;;;;;;5018965;28;20239;-83
2021/03/26 12:05:20;;;;;;;22.23;12.57;;;;;;;;;;5027037;28;20187;-84
2021/03/26 12:08:28;;;;;;;14.90;8.93;;;;;;;;;;5008904;28;20184;-84
2021/03/26 12:12:01;;;;;;;13.13;8.43;;;;;;;;;;5032708;28;20549;-83
2021/03/26 12:15:10;;;;;;;12.33;7.70;;;;;;;;;;5042505;23;20233;-75
2021/03/26 12:18:25;;;;;;;14.73;8.60;;;;;;;;;;5021999;28;20201;-76
2021/03/26 12:21:57;;;;;;;12.10;7.30;;;;;;;;;;5021507;28;20223;-75
2021/03/26 12:25:16;;;;;;;10.90;7.17;;;;;;;;;;5012806;28;20534;-75
2021/03/26 12:28:31;;;;;;;12.20;7.13;;;;;;;;;;5032129;28;20199;-75
2021/03/26 12:31:45;;;;;;;24.10;8.43;;;;;;;;;;5021229;28;20220;-75
2021/03/26 12:34:55;;;;;;;11.03;7.83;;;;;;;;;;5001968;28;20217;-74
2021/03/26 12:38:11;;;;;;;17.80;8.13;;;;;;;;;;5025219;28;20193;-74
2021/03/26 12:41:30;;;;;;;24.03;8.53;;;;;;;;;;5033266;28;20577;-74
2021/03/26 12:45:18;;;;;;;12.70;7.33;;;;;;;;;;5004052;28;20649;-74
2021/03/26 12:48:45;;;;;;;13.23;7.93;;;;;;;;;;4915779;29;20191;-74
2021/03/26 12:52:26;;;;;;;28.80;9.80;;;;;;;;;;4938548;28;20554;-75
2021/03/26 12:55:31;;;;;;;15.57;7.40;;;;;;;;;;4999200;28;20206;-75
2021/03/26 12:58:54;;;;;;;13.27;8.33;;;;;;;;;;5021254;28;20201;-75
2021/03/26 13:02:17;;;;;;;14.30;7.23;;;;;;;;;;5017317;28;20700;-75
2021/03/26 13:05:27;;;;;;;14.87;7.67;;;;;;;;;;5001718;28;20201;-76
2021/03/26 13:08:35;;;;;;;13.53;7.47;;;;;;;;;;5013925;28;20630;-75
2021/03/26 13:11:42;;;;;;;26.93;9.07;;;;;;;;;;5015189;28;20567;-75
2021/03/26 13:14:54;;;;;;;13.77;8.10;;;;;;;;;;5013307;28;20219;-75
2021/03/26 13:18:12;;;;;;;20.70;8.23;;;;;;;;;;5013824;28;20185;-75
2021/03/26 13:21:30;;;;;;;12.67;7.47;;;;;;;;;;5018507;28;20228;-75
2021/03/26 13:25:01;;;;;;;13.93;7.40;;;;;;;;;;5016751;28;20198;-74
2021/03/26 13:28:12;;;;;;;10.97;7.13;;;;;;;;;;5016584;28;20189;-75
2021/03/26 13:31:21;;;;;;;12.60;6.90;;;;;;;;;;5021232;28;20224;-75
2021/03/26 13:34:36;;;;;;;8.13;5.93;;;;;;;;;;5033558;28;20200;-74
2021/03/26 13:37:43;;;;;;;8.60;6.10;;;;;;;;;;5021160;28;20189;-74
2021/03/26 13:40:51;;;;;;;8.53;5.53;;;;;;;;;;5033338;28;20656;-75
2021/03/26 13:44:17;;;;;;;9.50;4.77;;;;;;;;;;5032971;28;20204;-75
2021/03/26 13:47:42;;;;;;;9.50;5.40;;;;;;;;;;5021278;28;20181;-75
2021/03/26 13:51:09;;;;;;;8.80;4.70;;;;;;;;;;5032796;28;20186;-74
2021/03/26 13:54:16;;;;;;;7.17;4.90;;;;;;;;;;5032936;28;20181;-75
2021/03/26 13:57:26;;;;;;;9.37;5.73;;;;;;;;;;5032819;28;20224;-75
2021/03/26 14:00:30;;;;;;;8.03;5.33;;;;;;;;;;5032790;28;20181;-75
2021/03/26 14:03:47;;;;;;;9.90;5.67;;;;;;;;;;5032957;28;20513;-75
2021/03/26 14:07:10;;;;;;;8.70;5.23;;;;;;;;;;5032614;28;20189;-75
2021/03/26 14:10:53;;;;;;;7.63;5.00;;;;;;;;;;5032934;28;20181;-76
2021/03/26 14:14:05;;;;;;;21.93;5.63;;;;;;;;;;5032923;28;20205;-75
2021/03/26 14:17:21;;;;;;;7.30;4.87;;;;;;;;;;5036527;28;20169;-75
2021/03/26 14:20:40;;;;;;;8.27;4.77;;;;;;;;;;5036577;28;20540;-75
2021/03/26 14:23:48;;;;;;;6.73;4.47;;;;;;;;;;5036294;28;20628;-75
2021/03/26 14:27:02;;;;;;;10.30;4.47;;;;;;;;;;5036151;28;20190;-75
2021/03/26 14:30:43;;;;;;;7.47;4.60;;;;;;;;;;5024207;28;20177;-74
2021/03/26 14:34:13;;;;;;;8.87;4.20;;;;;;;;;;5023774;28;20177;-75
2021/03/26 14:37:22;;;;;;;6.17;4.40;;;;;;;;;;5036045;28;20173;-75
2021/03/26 14:40:32;;;;;;;10.53;4.67;;;;;;;;;;5023863;28;20668;-75
2021/03/26 14:43:37;;;;;;;7.87;3.73;;;;;;;;;;5036103;28;20517;-75
2021/03/26 14:47:06;;;;;;;6.63;4.00;;;;;;;;;;5029813;28;20177;-75
2021/03/26 14:50:32;;;;;;;8.17;4.57;;;;;;;;;;5033126;28;20537;-74
2021/03/26 14:54:01;;;;;;;13.93;5.03;;;;;;;;;;5034023;28;20532;-75
2021/03/26 14:57:16;;;;;;;5.63;3.80;;;;;;;;;;5012098;28;20181;-75
2021/03/26 15:00:40;;;;;;;6.77;4.00;;;;;;;;;;5015815;28;20197;-74
2021/03/26 15:03:53;;;;;;;7.40;3.97;;;;;;;;;;5003698;28;20186;-74
2021/03/26 15:07:03;;;;;;;7.60;4.03;;;;;;;;;;5015827;28;20170;-75
2021/03/26 15:10:24;;;;;;;9.23;4.90;;;;;;;;;;5015363;28;20189;-75
2021/03/26 15:13:34;;;;;;;7.97;4.67;;;;;;;;;;5003919;28;20210;-75
2021/03/26 15:17:06;;;;;;;13.40;4.20;;;;;;;;;;5016998;28;20562;-75
2021/03/26 15:20:32;;;;;;;6.60;3.53;;;;;;;;;;5015710;28;20185;-73
2021/03/26 15:23:45;;;;;;;7.93;3.80;;;;;;;;;;5015747;28;20514;-74
2021/03/26 15:27:18;;;;;;;4.37;3.10;;;;;;;;;;5015719;28;20193;-73
2021/03/26 15:30:38;;;;;;;9.73;3.90;;;;;;;;;;5015500;28;20185;-73
2021/03/26 15:34:24;;;;;;;9.83;6.53;;;;;;;;;;5033527;28;20541;-73
2021/03/26 15:37:52;;;;;;;9.50;4.67;;;;;;;;;;5011853;28;20193;-73
2021/03/26 15:41:13;;;;;;;10.20;6.80;;;;;;;;;;5022963;28;20659;-73
2021/03/26 15:44:21;;;;;;;10.10;6.93;;;;;;;;;;5023005;28;20188;-73
2021/03/26 15:47:57;;;;;;;84.37;11.60;;;;;;;;;;5035195;28;20197;-73
2021/03/26 15:51:21;;;;;;;14.10;7.77;;;;;;;;;;5013896;28;20203;-74
2021/03/26 15:54:51;;;;;;;8.00;4.50;;;;;;;;;;5022597;28;20185;-73
2021/03/26 15:58:23;;;;;;;9.47;5.23;;;;;;;;;;5034665;28;20177;-74
2021/03/26 16:01:49;;;;;;;5.53;3.20;;;;;;;;;;5034521;28;20221;-74
2021/03/26 16:05:16;;;;;;;5.63;3.20;;;;;;;;;;5034649;28;20517;-74
2021/03/26 16:08:35;;;;;;;6.40;3.23;;;;;;;;;;5034711;28;20512;-74
2021/03/26 16:11:45;;;;;;;9.97;3.20;;;;;;;;;;5022339;28;20232;-74
2021/03/26 16:14:53;;;;;;;6.57;3.30;;;;;;;;;;5034028;28;20196;-74
2021/03/26 16:18:22;;;;;;;8.67;3.20;;;;;;;;;;5022179;28;20184;-74
2021/03/26 16:21:58;;;;;;;4.67;2.73;;;;;;;;;;5033948;28;20212;-74
2021/03/26 16:25:20;;;;;;;6.03;3.07;;;;;;;;;;4991691;28;20186;-74
2021/03/26 16:28:44;;;;;;;6.47;2.97;;;;;;;;;;5014455;28;20185;-74
2021/03/26 16:32:13;;;;;;;4.03;2.80;;;;;;;;;;5013564;28;20249;-74
2021/03/26 16:35:43;;;;;;;5.47;3.10;;;;;;;;;;5013545;28;20553;-74
2021/03/26 16:39:12;;;;;;;5.13;2.80;;;;;;;;;;5002524;28;20185;-74
2021/03/26 16:42:40;;;;;;;8.73;3.10;;;;;;;;;;5013984;28;20209;-74
2021/03/26 16:46:03;;;;;;;11.77;3.20;;;;;;;;;;5014499;28;20173;-74
2021/03/26 16:49:25;;;;;;;10.57;3.57;;;;;;;;;;5013085;28;20186;-74
2021/03/26 16:52:57;;;;;;;10.13;2.87;;;;;;;;;;5001760;28;20225;-74
2021/03/26 16:56:22;;;;;;;8.50;2.67;;;;;;;;;;5013861;28;20201;-74
2021/03/26 16:59:41;;;;;;;3.70;2.67;;;;;;;;;;5013627;28;20181;-74
2021/03/26 17:03:13;;;;;;;3.87;2.03;;;;;;;;;;5013808;28;20225;-74
2021/03/26 17:06:52;;;;;;;5.70;2.60;;;;;;;;;;5001604;28;20170;-74
2021/03/26 17:10:29;;;;;;;40.00;4.13;;;;;;;;;;5013949;28;20185;-74
2021/03/26 17:13:54;;;;;;;17.33;3.40;;;;;;;;;;5014563;28;20534;-75
2021/03/26 17:17:45;;;;;;;11.47;3.20;;;;;;;;;;5001317;28;20206;-74
2021/03/26 17:21:26;;;;;;;6.17;3.00;;;;;;;;;;5001612;28;20561;-74
2021/03/26 17:24:42;;;;;;;5.03;2.80;;;;;;;;;;5024521;28;20192;-74
2021/03/26 17:28:12;;;;;;;7.87;2.80;;;;;;;;;;5020791;28;20180;-75
2021/03/26 17:31:53;;;;;;;7.37;2.43;;;;;;;;;;5023371;28;20221;-74
2021/03/26 17:35:49;;;;;;;4.33;2.40;;;;;;;;;;5027035;28;20180;-75
2021/03/26 17:39:22;;;;;;;4.23;2.00;;;;;;;;;;4996921;28;20200;-74
2021/03/26 17:43:04;;;;;;;2.63;2.03;;;;;;;;;;5031539;28;20220;-74
2021/03/26 17:46:26;;;;;;;3.33;1.97;;;;;;;;;;4992727;28;20190;-74
2021/03/26 17:49:45;;;;;;;5.10;2.17;;;;;;;;;;5005526;28;20178;-74
2021/03/26 17:53:19;;;;;;;11.93;2.50;;;;;;;;;;5018278;28;20220;-76
2021/03/26 17:56:53;;;;;;;3.57;2.00;;;;;;;;;;5019643;28;20549;-75
2021/03/26 18:00:29;;;;;;;7.80;2.13;;;;;;;;;;5021491;28;20540;-76
2021/03/26 18:04:16;;;;;;;3.60;2.00;;;;;;;;;;5005135;28;20178;-75
2021/03/26 18:07:32;;;;;;;5.37;2.10;;;;;;;;;;5005054;28;20182;-75
2021/03/26 18:10:53;;;;;;;3.60;2.13;;;;;;;;;;5016349;28;20194;-75
2021/03/26 18:14:16;;;;;;;5.80;1.90;;;;;;;;;;5016731;28;20205;-76
2021/03/26 18:17:51;;;;;;;6.57;1.57;;;;;;;;;;5021633;28;20209;-75
2021/03/26 18:21:16;;;;;;;6.37;1.97;;;;;;;;;;5033449;28;20193;-75
2021/03/26 18:24:43;;;;;;;2.47;1.63;;;;;;;;;;5012982;28;20189;-75
2021/03/26 18:27:56;;;;;;;2.80;1.60;;;;;;;;;;5004490;28;20182;-75
2021/03/26 18:31:17;;;;;;;3.57;1.60;;;;;;;;;;5016379;28;20193;-75
2021/03/26 18:34:44;;;;;;;2.03;1.40;;;;;;;;;;5016273;28;20181;-75
2021/03/26 18:38:03;;;;;;;7.83;1.67;;;;;;;;;;5016498;28;20660;-75
2021/03/26 18:41:30;;;;;;;3.53;1.53;;;;;;;;;;5016678;28;20182;-76
2021/03/26 18:44:46;;;;;;;4.73;1.70;;;;;;;;;;5016482;28;20189;-74
2021/03/26 18:48:08;;;;;;;4.57;2.10;;;;;;;;;;5031174;28;20193;-75
2021/03/26 18:51:31;;;;;;;3.93;2.00;;;;;;;;;;4992883;28;20193;-75
2021/03/26 18:54:58;;;;;;;4.63;1.70;;;;;;;;;;5023482;28;20193;-75
2021/03/26 18:58:41;;;;;;;5.87;1.93;;;;;;;;;;5023056;28;20177;-75
2021/03/26 19:02:10;;;;;;;2.47;1.67;;;;;;;;;;5015351;28;20213;-74
2021/03/26 19:05:28;;;;;;;4.77;2.00;;;;;;;;;;5017313;28;20185;-74
2021/03/26 19:08:35;;;;;;;2.87;1.63;;;;;;;;;;5013823;28;20189;-74
2021/03/26 19:12:18;;;;;;;2.70;1.70;;;;;;;;;;5020398;28;20220;-74
2021/03/26 19:15:30;;;;;;;3.83;1.73;;;;;;;;;;5006115;28;20217;-74
2021/03/26 19:18:52;;;;;;;5.03;1.93;;;;;;;;;;5003967;28;20194;-74
2021/03/26 19:22:13;;;;;;;4.80;2.20;;;;;;;;;;5012188;28;20221;-74
2021/03/26 19:25:32;;;;;;;5.80;2.30;;;;;;;;;;5022262;28;20201;-75
2021/03/26 19:28:49;;;;;;;5.10;2.57;;;;;;;;;;5021714;28;20193;-75
2021/03/26 19:31:58;;;;;;;6.07;2.80;;;;;;;;;;5029056;28;20218;-75
2021/03/26 19:35:15;;;;;;;7.67;4.47;;;;;;;;;;5006887;28;20193;-74
2021/03/26 19:38:29;;;;;;;11.03;6.03;;;;;;;;;;5034427;28;20189;-75
2021/03/26 19:41:42;;;;;;;12.93;5.77;;;;;;;;;;5021983;28;20225;-75
2021/03/26 19:44:59;;;;;;;9.83;4.03;;;;;;;;;;5016391;28;20181;-74
2021/03/26 19:48:33;;;;;;;5.20;3.20;;;;;;;;;;5034864;28;20197;-74